Time;durP1;ratioP1;P1;durP2;ratioP2;P2;SDS_P1;SDS_P2;PMS_P1;PMS_P2;Temp;Humidity;BMP_temperature;BMP_pressure;BME280_temperature;BME280_humidity;BME280_pressure;Samples;Min_cycle;Max_cycle;Signal;HPM_P1;HPM_P2
2021/11/12 00:14:31;;;;;;;37.90;20.30;;;179.30;1766.40;;;;;;4824262;29;20046;-62
2021/11/12 00:16:57;;;;;;;39.42;19.80;;;179.40;1689.60;;;;;;4823957;29;20111;-62
2021/11/12 00:19:23;;;;;;;40.28;20.40;;;179.30;1740.80;;;;;;4823913;29;20051;-62
2021/11/12 00:21:48;;;;;;;34.72;19.65;;;179.30;1766.40;;;;;;4823963;29;20050;-62
2021/11/12 00:24:14;;;;;;;34.70;19.52;;;179.50;1664.00;;;;;;4823597;29;20091;-62
2021/11/12 00:26:40;;;;;;;37.08;20.17;;;179.30;1715.20;;;;;;4823944;29;20121;-61
2021/11/12 00:29:08;;;;;;;36.50;20.70;;;179.40;1740.80;;;;;;4823860;29;20114;-61
2021/11/12 00:31:42;;;;;;;39.95;22.48;;;179.50;1689.60;;;;;;4808565;29;20071;-61
2021/11/12 00:34:36;;;;;;;41.03;22.23;;;179.40;1740.80;;;;;;4852845;29;20065;-62
2021/11/12 00:44:38;;;;;;;48.30;27.30;;;179.40;1740.80;;;;;;4880923;29;20134;-62
2021/11/12 00:47:19;;;;;;;41.97;25.40;;;179.50;1689.60;;;;;;4863819;29;20104;-62
2021/11/12 00:49:48;;;;;;;49.05;24.65;;;179.30;1740.80;;;;;;4880966;29;20028;-62
2021/11/12 00:52:27;;;;;;;40.33;23.08;;;179.30;1766.40;;;;;;4863828;29;20442;-62
2021/11/12 00:54:53;;;;;;;46.28;23.10;;;179.40;1689.60;;;;;;4880716;29;20100;-62
2021/11/12 00:57:19;;;;;;;41.13;21.73;;;179.20;1766.40;;;;;;4880692;29;20456;-61
2021/11/12 00:59:44;;;;;;;40.10;21.25;;;179.30;1766.40;;;;;;4880479;29;20059;-62
2021/11/12 01:02:10;;;;;;;39.00;21.00;;;179.40;1689.60;;;;;;4880532;29;20033;-61
2021/11/12 01:04:36;;;;;;;33.30;18.85;;;179.20;1766.40;;;;;;4880553;29;20036;-61
2021/11/12 01:07:02;;;;;;;40.65;20.55;;;179.30;1766.40;;;;;;4880559;29;20029;-62
2021/11/12 01:09:27;;;;;;;37.63;21.25;;;179.30;1715.20;;;;;;4880251;29;20036;-63
2021/11/12 01:11:53;;;;;;;38.03;20.92;;;179.20;1792.00;;;;;;4879686;29;20025;-64
2021/11/12 01:14:22;;;;;;;37.75;21.08;;;179.30;1766.40;;;;;;4863311;29;20033;-61
2021/11/12 01:16:49;;;;;;;40.83;22.38;;;179.30;1740.80;;;;;;4880230;29;20032;-62
2021/11/12 01:19:16;;;;;;;36.47;21.95;;;179.20;1792.00;;;;;;4880553;29;20037;-62
2021/11/12 01:21:42;;;;;;;42.45;23.25;;;179.30;1766.40;;;;;;4888611;29;20052;-62
2021/11/12 01:24:09;;;;;;;47.50;25.05;;;179.30;1766.40;;;;;;4882078;29;20091;-61
2021/11/12 01:26:34;;;;;;;44.40;24.50;;;179.20;1843.20;;;;;;4898819;29;20028;-62
2021/11/12 01:29:00;;;;;;;44.58;24.75;;;179.40;1766.40;;;;;;4898828;29;20088;-62
2021/11/12 01:31:29;;;;;;;43.60;24.10;;;179.30;1792.00;;;;;;4898788;29;20035;-62
2021/11/12 01:33:57;;;;;;;39.33;24.27;;;179.30;1843.20;;;;;;4898690;29;20038;-62
2021/11/12 01:36:29;;;;;;;42.25;25.23;;;179.40;1740.80;;;;;;4898739;29;20027;-62
2021/11/12 01:38:58;;;;;;;48.00;26.63;;;179.20;1843.20;;;;;;4898695;29;20273;-62
2021/11/12 01:41:25;;;;;;;44.28;24.48;;;179.30;1843.20;;;;;;4898950;29;20571;-61
2021/11/12 01:43:56;;;;;;;46.20;25.98;;;179.40;1740.80;;;;;;4898908;29;20041;-62
2021/11/12 01:46:28;;;;;;;42.45;25.70;;;179.30;1792.00;;;;;;4898650;29;20028;-62
2021/11/12 01:49:08;;;;;;;48.45;27.05;;;179.40;1792.00;;;;;;4898793;29;20039;-62
2021/11/12 01:56:37;;;;;;;51.80;28.42;;;179.40;1792.00;;;;;;4898729;29;20035;-62
2021/11/12 02:01:51;;;;;;;68.63;35.47;;;179.20;1792.00;;;;;;4898612;29;20460;-62
2021/11/12 02:04:23;;;;;;;72.65;40.72;;;179.20;1792.00;;;;;;4881153;29;20096;-62
2021/11/12 02:06:49;;;;;;;89.45;44.78;;;179.20;1740.80;;;;;;4898441;29;20099;-61
2021/11/12 02:09:20;;;;;;;83.68;44.15;;;154.40;1792.00;;;;;;4898490;29;20040;-62
2021/11/12 02:11:54;;;;;;;90.18;44.38;;;179.20;1740.80;;;;;;4898250;29;20108;-62
2021/11/12 02:14:23;;;;;;;98.85;50.60;;;154.40;1740.80;;;;;;4898819;29;20088;-62
2021/11/12 02:17:05;;;;;;;89.63;45.78;;;154.30;1766.40;;;;;;4898569;29;20037;-61
2021/11/12 02:19:33;;;;;;;74.53;38.20;;;154.50;1740.80;;;;;;4898172;29;20475;-61
2021/11/12 02:22:10;;;;;;;64.40;34.67;;;154.20;1715.20;;;;;;4898265;29;20044;-62
2021/11/12 02:24:40;;;;;;;55.80;31.40;;;154.20;1766.40;;;;;;4901652;29;20037;-61
2021/11/12 02:27:08;;;;;;;46.33;28.02;;;154.20;1740.80;;;;;;4902101;29;20044;-62
2021/11/12 02:29:37;;;;;;;56.10;28.65;;;154.10;1715.20;;;;;;4902066;29;20047;-62
2021/11/12 02:32:03;;;;;;;47.47;26.52;;;154.00;1766.40;;;;;;4902046;29;20033;-62
2021/11/12 02:34:29;;;;;;;40.58;23.02;;;154.00;1740.80;;;;;;4902027;29;20029;-62
2021/11/12 02:36:55;;;;;;;31.85;19.35;;;153.80;1740.80;;;;;;4901986;29;20394;-61
2021/11/12 02:39:22;;;;;;;35.30;19.92;;;153.60;1792.00;;;;;;4901602;29;20141;-62
2021/11/12 02:41:47;;;;;;;31.58;20.27;;;128.90;1817.60;;;;;;4901781;29;20370;-61
2021/11/12 02:44:13;;;;;;;32.90;19.98;;;128.90;1766.40;;;;;;4901681;29;20065;-61
2021/11/12 02:46:40;;;;;;;32.08;19.75;;;128.70;1766.40;;;;;;4901599;29;20539;-62
2021/11/12 02:49:06;;;;;;;30.65;19.20;;;128.70;1817.60;;;;;;4884462;29;20474;-61
2021/11/12 02:51:35;;;;;;;29.65;18.65;;;128.60;1817.60;;;;;;4884701;29;20119;-61
2021/11/12 02:54:03;;;;;;;26.83;17.73;;;128.60;1817.60;;;;;;4901586;29;20081;-62
2021/11/12 02:56:31;;;;;;;32.55;18.92;;;128.70;1792.00;;;;;;4902102;29;20024;-62
2021/11/12 02:59:04;;;;;;;33.67;19.27;;;128.50;1766.40;;;;;;4901404;29;20033;-62
2021/11/12 03:01:32;;;;;;;36.53;21.00;;;128.40;1792.00;;;;;;4901375;29;20368;-62
2021/11/12 03:03:59;;;;;;;37.28;20.95;;;128.40;1868.80;;;;;;4901950;29;20032;-61
2021/11/12 03:06:25;;;;;;;33.42;20.55;;;128.50;1920.00;;;;;;4901177;29;20061;-61
2021/11/12 03:08:52;;;;;;;30.88;19.52;;;128.50;1920.00;;;;;;4901205;29;20107;-62
2021/11/12 03:11:18;;;;;;;29.95;18.50;;;128.70;1868.80;;;;;;4884133;29;20031;-62
2021/11/12 03:13:45;;;;;;;32.58;19.40;;;128.90;1817.60;;;;;;4901434;29;20213;-62
2021/11/12 03:16:13;;;;;;;31.17;20.58;;;128.80;1868.80;;;;;;4901169;29;20029;-61
2021/11/12 03:18:39;;;;;;;33.40;20.63;;;128.70;1894.40;;;;;;4900788;29;20033;-62
2021/11/12 03:21:07;;;;;;;35.05;23.33;;;128.90;1817.60;;;;;;4901248;29;20088;-61
2021/11/12 03:23:42;;;;;;;34.78;22.02;;;128.80;1894.40;;;;;;4900933;29;20024;-62
2021/11/12 03:26:19;;;;;;;34.03;21.08;;;128.80;1843.20;;;;;;4900853;29;20032;-62
2021/11/12 04:04:38;;;;;;;32.55;21.17;;;103.30;1894.40;;;;;;4899036;29;20036;-61
2021/11/12 04:07:20;;;;;;;31.70;20.50;;;103.30;1868.80;;;;;;4894951;29;20044;-62
2021/11/12 04:20:48;;;;;;;30.50;19.50;;;102.90;1843.20;;;;;;4900467;29;20467;-61
2021/11/12 05:09:49;;;;;;;30.38;18.60;;;128.20;1817.60;;;;;;4899312;29;20129;-62
2021/11/12 05:45:13;;;;;;;28.02;17.02;;;77.50;1868.80;;;;;;4859545;29;20048;-62
2021/11/12 05:50:13;;;;;;;25.58;15.48;;;77.40;1920.00;;;;;;4859412;29;20025;-62
2021/11/12 05:55:22;;;;;;;27.17;17.85;;;77.70;1920.00;;;;;;4859268;29;20081;-62
2021/11/12 05:57:48;;;;;;;38.63;23.60;;;102.40;1971.20;;;;;;4859912;29;20154;-62
2021/11/12 06:00:17;;;;;;;30.65;20.02;;;102.40;2022.40;;;;;;4863179;29;20171;-62
2021/11/12 06:02:44;;;;;;;28.58;19.75;;;102.60;2022.40;;;;;;4863294;29;20531;-62
2021/11/12 06:05:10;;;;;;;26.42;18.00;;;102.70;1868.80;;;;;;4863053;29;20038;-62
2021/11/12 06:07:36;;;;;;;28.60;19.45;;;102.90;1817.60;;;;;;4872156;29;20055;-62
2021/11/12 06:10:03;;;;;;;34.30;21.67;;;102.70;1894.40;;;;;;4901908;29;20116;-61
2021/11/12 06:12:29;;;;;;;41.35;25.60;;;102.80;1920.00;;;;;;4885101;29;20395;-62
2021/11/12 06:14:54;;;;;;;69.60;42.67;;;102.90;1843.20;;;;;;4902603;29;20037;-62
2021/11/12 06:17:20;;;;;;;46.85;29.52;;;102.90;1894.40;;;;;;4885285;29;20040;-62
2021/11/12 06:19:46;;;;;;;39.22;25.00;;;103.00;1920.00;;;;;;4901887;29;20497;-62
2021/11/12 06:22:12;;;;;;;48.90;27.77;;;103.10;1868.80;;;;;;4901935;29;20487;-61
2021/11/12 06:24:38;;;;;;;35.88;22.08;;;103.10;1920.00;;;;;;4902076;29;20055;-61
2021/11/12 06:27:07;;;;;;;82.63;45.78;;;103.20;1894.40;;;;;;4900415;29;20474;-63
2021/11/12 06:29:34;;;;;;;99.10;50.55;;;103.00;1843.20;;;;;;4902111;29;20183;-62
2021/11/12 06:32:01;;;;;;;91.82;51.08;;;102.90;1894.40;;;;;;4901795;29;20028;-61
2021/11/12 06:34:28;;;;;;;72.03;42.22;;;103.00;1920.00;;;;;;4902054;29;20035;-61
2021/11/12 06:36:54;;;;;;;84.10;47.22;;;103.00;1868.80;;;;;;4901801;29;20021;-61
2021/11/12 06:39:20;;;;;;;99.60;51.90;;;103.00;1894.40;;;;;;4901596;29;20036;-63
2021/11/12 06:49:38;;;;;;;57.00;30.27;;;103.10;1920.00;;;;;;4900832;29;20506;-61
2021/11/12 06:52:05;;;;;;;50.30;29.55;;;103.10;1894.40;;;;;;4899731;29;20025;-62
2021/11/12 06:54:31;;;;;;;41.65;24.48;;;103.00;1920.00;;;;;;4900417;29;20036;-62
2021/11/12 06:56:57;;;;;;;41.30;26.85;;;102.90;1920.00;;;;;;4900375;29;20041;-64
2021/11/12 06:59:23;;;;;;;44.67;26.02;;;102.80;1920.00;;;;;;4900207;29;20495;-62
2021/11/12 07:01:49;;;;;;;50.03;33.17;;;102.80;1971.20;;;;;;4900810;29;20032;-62
2021/11/12 07:04:17;;;;;;;105.10;70.25;;;102.90;1996.80;;;;;;4900065;29;20100;-61
2021/11/12 07:06:43;;;;;;;90.80;56.50;;;103.00;2048.00;;;;;;4900208;29;20516;-64
2021/11/12 07:09:10;;;;;;;85.47;56.25;;;103.10;2150.40;;;;;;4900277;29;20084;-63
2021/11/12 07:11:36;;;;;;;52.05;34.47;;;103.20;2099.20;;;;;;4898558;29;20047;-61
2021/11/12 07:14:06;;;;;;;61.88;33.78;;;128.00;2022.40;;;;;;4900261;29;20391;-62
2021/11/12 07:16:32;;;;;;;53.47;34.10;;;128.10;2048.00;;;;;;4900238;29;20028;-62
2021/11/12 07:19:00;;;;;;;51.05;29.30;;;128.10;2073.60;;;;;;4900153;29;20036;-63
2021/11/12 07:21:27;;;;;;;62.13;31.95;;;128.20;2022.40;;;;;;4899633;29;20037;-62
2021/11/12 07:23:54;;;;;;;61.08;29.85;;;128.20;2073.60;;;;;;4900012;29;20036;-63
2021/11/12 07:26:20;;;;;;;50.03;27.17;;;128.30;2073.60;;;;;;4900568;29;20025;-60
2021/11/12 07:28:48;;;;;;;53.47;28.30;;;128.30;2048.00;;;;;;4899540;29;20463;-64
2021/11/12 07:31:16;;;;;;;48.42;27.27;;;128.40;2073.60;;;;;;4882800;29;20037;-64
2021/11/12 07:33:44;;;;;;;59.95;29.00;;;128.50;1996.80;;;;;;4900232;29;20115;-62
2021/11/12 07:46:42;;;;;;;82.27;38.57;;;128.90;2022.40;;;;;;4899829;29;20432;-62
2021/11/12 07:49:11;;;;;;;77.40;38.90;;;128.90;2073.60;;;;;;4899503;29;20655;-63
2021/11/12 07:51:38;;;;;;;81.28;38.30;;;153.60;2022.40;;;;;;4900190;29;20032;-62
2021/11/12 07:54:04;;;;;;;76.43;33.47;;;153.60;2048.00;;;;;;4900460;29;20031;-61
2021/11/12 07:56:31;;;;;;;85.53;37.50;;;153.60;2124.80;;;;;;4898890;29;20061;-61
2021/11/12 07:58:57;;;;;;;96.72;39.50;;;153.60;2124.80;;;;;;4900488;29;20115;-63
2021/11/12 08:01:23;;;;;;;90.45;40.35;;;153.80;2124.80;;;;;;4900460;29;20082;-61
2021/11/12 08:03:57;;;;;;;96.20;39.58;;;153.80;2124.80;;;;;;4900395;29;20375;-61
2021/11/12 08:06:26;;;;;;;95.80;42.00;;;153.90;2124.80;;;;;;4900391;29;20033;-61
2021/11/12 08:09:15;;;;;;;110.78;48.05;;;153.90;2124.80;;;;;;4900585;29;20037;-61
2021/11/12 08:11:45;;;;;;;167.38;85.72;;;154.00;2124.80;;;;;;4899437;29;20060;-64
2021/11/12 08:14:15;;;;;;;151.38;70.47;;;154.00;2124.80;;;;;;4900073;29;20506;-61
2021/11/12 08:19:10;;;;;;;99.63;44.30;;;154.20;2124.80;;;;;;4900101;29;20047;-61
2021/11/12 08:21:58;;;;;;;117.30;53.53;;;154.30;2099.20;;;;;;4899515;29;20036;-63
2021/11/12 08:35:12;;;;;;;;;;;179.30;2099.20;;;;;;4900143;29;20141;-61
2021/11/12 08:37:51;;;;;;;154.77;88.90;;;179.30;2099.20;;;;;;4899295;29;19907;-61
2021/11/12 08:45:30;;;;;;;176.52;95.95;;;179.40;2099.20;;;;;;4899712;29;20472;-62
2021/11/12 08:47:59;;;;;;;137.82;68.45;;;179.50;2073.60;;;;;;4899578;29;20052;-61
2021/11/12 08:50:26;;;;;;;124.05;55.38;;;179.50;2073.60;;;;;;4881810;29;20164;-61
2021/11/12 08:53:01;;;;;;;118.88;51.38;;;179.50;2073.60;;;;;;4899385;29;20033;-60
2021/11/12 08:55:30;;;;;;;104.10;46.50;;;179.50;2099.20;;;;;;4899108;29;20056;-61
2021/11/12 08:57:56;;;;;;;104.50;47.03;;;179.50;2099.20;;;;;;4881945;29;20091;-61
2021/11/12 09:00:23;;;;;;;107.85;49.00;;;179.60;2099.20;;;;;;4899010;29;20095;-61
2021/11/12 09:02:50;;;;;;;108.53;49.28;;;179.60;2099.20;;;;;;4899127;29;20502;-62
2021/11/12 09:05:20;;;;;;;107.00;49.17;;;179.70;2073.60;;;;;;4898619;29;20033;-61
2021/11/12 09:07:48;;;;;;;106.43;50.17;;;179.70;2073.60;;;;;;4896911;29;20048;-61
2021/11/12 09:10:14;;;;;;;114.93;54.67;;;179.70;2099.20;;;;;;4880635;29;20027;-61
2021/11/12 09:12:43;;;;;;;120.93;57.70;;;179.80;2073.60;;;;;;4897517;29;20040;-64
2021/11/12 09:15:22;;;;;;;138.88;61.05;;;179.80;2099.20;;;;;;4897455;29;20028;-61
2021/11/12 09:17:48;;;;;;;124.18;54.20;;;179.80;2099.20;;;;;;4880311;29;20036;-61
2021/11/12 09:20:15;;;;;;;118.85;51.85;;;179.90;2073.60;;;;;;4896873;29;20127;-63
2021/11/12 09:22:41;;;;;;;123.15;51.50;;;179.80;2099.20;;;;;;4896103;29;20406;-63
2021/11/12 09:25:08;;;;;;;109.20;50.53;;;179.90;2099.20;;;;;;4897074;29;20052;-61
2021/11/12 09:27:34;;;;;;;115.60;50.75;;;180.00;2073.60;;;;;;4897071;29;20047;-61
2021/11/12 09:30:02;;;;;;;117.90;52.17;;;180.00;2073.60;;;;;;4897306;29;20852;-63
2021/11/12 09:32:28;;;;;;;118.72;52.85;;;180.00;2073.60;;;;;;4895909;29;20055;-65
2021/11/12 09:34:53;;;;;;;112.63;52.38;;;180.10;2073.60;;;;;;4878809;29;20535;-62
2021/11/12 09:37:23;;;;;;;122.13;55.15;;;180.10;2099.20;;;;;;4896314;29;20399;-60
2021/11/12 09:39:59;;;;;;;124.38;56.15;;;180.10;2099.20;;;;;;4896957;29;20041;-61
2021/11/12 09:42:28;;;;;;;136.90;54.83;;;180.10;2073.60;;;;;;4877999;29;20061;-63
2021/11/12 09:44:56;;;;;;;139.23;57.63;;;204.80;2073.60;;;;;;4897037;29;20036;-66
2021/11/12 09:47:27;;;;;;;155.75;67.07;;;204.80;2073.60;;;;;;4894170;29;20025;-67
2021/11/12 09:49:54;;;;;;;142.75;63.67;;;204.80;2073.60;;;;;;4878930;29;20035;-64
2021/11/12 09:52:22;;;;;;;135.27;61.78;;;204.80;2073.60;;;;;;4886742;29;20052;-64
2021/11/12 09:54:48;;;;;;;110.75;50.25;;;204.80;2073.60;;;;;;4885700;29;20120;-65
2021/11/12 09:57:14;;;;;;;107.18;49.17;;;204.90;2048.00;;;;;;4892163;29;20032;-65
2021/11/12 09:59:46;;;;;;;129.90;58.10;;;204.90;2048.00;;;;;;4874181;29;20518;-61
2021/11/12 10:02:14;;;;;;;126.93;58.50;;;205.00;2048.00;;;;;;4896549;29;20444;-61
2021/11/12 10:04:40;;;;;;;139.30;59.40;;;205.00;2048.00;;;;;;4896917;29;20025;-61
2021/11/12 10:07:15;;;;;;;134.13;58.85;;;205.00;2048.00;;;;;;4897233;29;20048;-61
2021/11/12 10:09:42;;;;;;;134.30;61.08;;;205.00;2048.00;;;;;;4896846;29;20474;-67
2021/11/12 10:12:09;;;;;;;151.65;68.47;;;205.10;2048.00;;;;;;4896709;29;20107;-62
2021/11/12 10:15:04;;;;;;;160.98;69.28;;;205.10;2048.00;;;;;;4898159;29;20032;-68
2021/11/12 10:17:31;;;;;;;143.03;62.93;;;205.20;2048.00;;;;;;4897780;29;20024;-67
2021/11/12 10:19:57;;;;;;;116.93;51.75;;;205.20;2048.00;;;;;;4896395;29;20293;-66
2021/11/12 10:22:27;;;;;;;101.32;48.83;;;205.30;2048.00;;;;;;4896200;29;20435;-66
2021/11/12 10:24:54;;;;;;;110.85;49.83;;;205.30;2022.40;;;;;;4896487;29;20033;-65
2021/11/12 10:27:24;;;;;;;119.57;55.80;;;205.30;2022.40;;;;;;4896708;29;20092;-66
2021/11/12 10:30:12;;;;;;;113.88;52.83;;;205.30;2048.00;;;;;;4897218;29;20031;-62
2021/11/12 10:32:39;;;;;;;108.72;53.80;;;205.40;2022.40;;;;;;4881822;29;20091;-68
2021/11/12 10:35:09;;;;;;;113.90;53.85;;;205.50;2048.00;;;;;;4898596;29;20107;-61
2021/11/12 10:37:39;;;;;;;109.88;52.33;;;205.60;2022.40;;;;;;4898385;29;20040;-64
2021/11/12 10:40:09;;;;;;;98.97;48.55;;;205.60;1996.80;;;;;;4897482;29;20036;-63
2021/11/12 10:42:44;;;;;;;99.68;49.25;;;205.60;1996.80;;;;;;4898002;29;20036;-65
2021/11/12 10:45:11;;;;;;;99.03;49.08;;;205.70;2022.40;;;;;;4901067;29;20108;-64
2021/11/12 10:47:51;;;;;;;150.48;74.55;;;205.70;1996.80;;;;;;4901920;29;20033;-62
2021/11/12 10:50:19;;;;;;;143.57;75.63;;;230.40;1996.80;;;;;;4901587;29;20035;-63
2021/11/12 10:52:46;;;;;;;124.75;62.90;;;230.40;1971.20;;;;;;4884809;29;20391;-63
2021/11/12 10:55:22;;;;;;;122.45;65.80;;;230.40;1971.20;;;;;;4901359;29;20487;-63
2021/11/12 10:58:08;;;;;;;109.18;55.88;;;205.70;1971.20;;;;;;4901436;29;20104;-61
2021/11/12 11:00:36;;;;;;;99.63;51.65;;;230.40;1971.20;;;;;;4901593;29;20044;-61
2021/11/12 11:03:09;;;;;;;102.80;52.35;;;230.40;1971.20;;;;;;4901544;29;20028;-61
2021/11/12 11:05:40;;;;;;;99.85;50.72;;;205.70;1971.20;;;;;;4900960;29;20029;-61
2021/11/12 11:08:15;;;;;;;120.60;57.75;;;205.70;1971.20;;;;;;4901197;29;20052;-62
2021/11/12 11:10:44;;;;;;;106.80;52.60;;;205.70;1971.20;;;;;;4884435;29;20039;-63
2021/11/12 11:13:17;;;;;;;98.28;47.33;;;205.70;1971.20;;;;;;4901330;29;20037;-62
2021/11/12 11:15:55;;;;;;;98.75;50.15;;;205.70;1971.20;;;;;;4901222;29;20031;-64
2021/11/12 11:18:28;;;;;;;98.13;48.60;;;230.40;1996.80;;;;;;4901026;29;20032;-66
2021/11/12 11:21:11;;;;;;;91.25;46.67;;;230.40;1971.20;;;;;;4883956;29;20507;-63
2021/11/12 11:23:48;;;;;;;92.10;46.17;;;230.40;1971.20;;;;;;4900947;29;20033;-66
2021/11/12 11:26:22;;;;;;;91.78;45.10;;;230.40;1971.20;;;;;;4901044;29;20033;-66
2021/11/12 11:28:50;;;;;;;98.25;51.58;;;230.60;1971.20;;;;;;4901008;29;20035;-61
2021/11/12 11:31:18;;;;;;;84.72;44.67;;;230.50;1996.80;;;;;;4901164;29;20040;-61
2021/11/12 11:33:46;;;;;;;89.20;45.33;;;230.50;1971.20;;;;;;4900812;29;20056;-61
2021/11/12 11:36:16;;;;;;;87.18;42.75;;;230.50;1945.60;;;;;;4900881;29;20100;-61
2021/11/12 11:38:43;;;;;;;95.65;44.50;;;230.60;1945.60;;;;;;4900804;29;20168;-62
2021/11/12 11:41:15;;;;;;;98.60;44.35;;;230.60;1971.20;;;;;;4900689;29;20024;-61
2021/11/12 11:43:42;;;;;;;92.63;48.10;;;230.60;1945.60;;;;;;4901225;29;20024;-65
2021/11/12 11:46:20;;;;;;;95.50;45.83;;;230.70;1945.60;;;;;;4900677;29;20040;-66
2021/11/12 11:48:46;;;;;;;93.63;44.72;;;230.70;1945.60;;;;;;4900808;29;20439;-62
2021/11/12 11:51:40;;;;;;;92.43;47.55;;;230.80;1945.60;;;;;;4900726;29;20487;-61
2021/11/12 11:54:08;;;;;;;98.50;51.25;;;230.90;1945.60;;;;;;4898844;29;20056;-66
2021/11/12 11:56:42;;;;;;;97.57;53.70;;;231.00;1971.20;;;;;;4882769;29;20028;-65
2021/11/12 11:59:21;;;;;;;99.85;50.50;;;231.00;1920.00;;;;;;4900321;29;20096;-61
2021/11/12 12:01:52;;;;;;;99.15;51.20;;;231.00;1945.60;;;;;;4900565;29;20104;-61
2021/11/12 12:04:18;;;;;;;97.72;49.45;;;231.00;1920.00;;;;;;4900189;29;20344;-64
2021/11/12 12:07:07;;;;;;;93.50;49.03;;;231.10;1920.00;;;;;;4900379;29;20036;-64
2021/11/12 12:09:51;;;;;;;88.47;46.22;;;231.10;1920.00;;;;;;4899821;29;20029;-65
2021/11/12 12:12:34;;;;;;;92.43;47.67;;;231.10;1920.00;;;;;;4900293;29;20108;-61
2021/11/12 12:15:03;;;;;;;86.43;45.17;;;231.20;1920.00;;;;;;4883172;29;20044;-63
2021/11/12 12:17:32;;;;;;;80.40;43.67;;;231.20;1920.00;;;;;;4899992;29;20375;-66
2021/11/12 13:25:37;;;;;;;85.90;42.05;;;256.60;1843.20;;;;;;4841303;29;20380;-62
2021/11/12 13:28:24;;;;;;;79.20;40.70;;;256.70;1843.20;;;;;;4841351;29;20026;-61
2021/11/12 13:30:57;;;;;;;85.53;43.88;;;256.70;1843.20;;;;;;4841736;29;20439;-61
2021/11/12 13:33:32;;;;;;;87.35;45.67;;;256.70;1843.20;;;;;;4841231;29;20117;-60
2021/11/12 13:36:04;;;;;;;88.90;44.70;;;256.70;1843.20;;;;;;4841069;29;20034;-66
2021/11/12 13:38:41;;;;;;;94.47;46.38;;;256.80;1843.20;;;;;;4841058;29;20052;-61
2021/11/12 13:41:09;;;;;;;102.97;45.22;;;256.80;1843.20;;;;;;4825609;29;20033;-61
2021/11/12 13:43:40;;;;;;;106.03;48.28;;;256.90;1843.20;;;;;;4839886;29;20030;-61
2021/11/12 13:46:07;;;;;;;104.32;50.00;;;256.90;1843.20;;;;;;4871740;29;20112;-61
2021/11/12 13:48:54;;;;;;;100.85;45.33;;;256.90;1817.60;;;;;;4897434;29;20037;-61
2021/11/12 13:51:30;;;;;;;104.80;48.70;;;281.60;1843.20;;;;;;4879995;29;20056;-60
2021/11/12 13:53:58;;;;;;;112.97;51.38;;;256.90;1843.20;;;;;;4879785;29;20026;-61
2021/11/12 13:56:25;;;;;;;106.40;50.55;;;256.90;1843.20;;;;;;4880084;29;20025;-61
2021/11/12 13:59:12;;;;;;;100.47;49.05;;;256.90;1843.20;;;;;;4879837;29;20033;-63
2021/11/12 14:01:39;;;;;;;94.63;45.83;;;256.90;1843.20;;;;;;4890528;29;20067;-60
2021/11/12 14:04:37;;;;;;;105.15;48.25;;;256.80;1843.20;;;;;;4897153;29;20152;-60
2021/11/12 14:07:13;;;;;;;98.25;47.95;;;256.80;1843.20;;;;;;4859127;29;20041;-61
2021/11/12 14:09:39;;;;;;;95.82;44.72;;;256.80;1843.20;;;;;;4859064;29;20042;-60
2021/11/12 14:12:12;;;;;;;101.65;50.78;;;256.80;1868.80;;;;;;4859213;29;20536;-60
2021/11/12 14:14:40;;;;;;;103.25;46.30;;;256.70;1868.80;;;;;;4859054;29;20033;-61
2021/11/12 14:17:21;;;;;;;84.65;43.95;;;256.70;1868.80;;;;;;4859142;29;20040;-61
2021/11/12 14:22:54;;;;;;;104.03;47.00;;;256.60;1868.80;;;;;;4825841;29;20180;-61
2021/11/12 14:28:04;;;;;;;;;;;256.60;1868.80;;;;;;4826623;29;20130;-61
2021/11/12 14:33:26;;;;;;;136.68;70.18;;;256.50;1868.80;;;;;;4825918;29;20035;-60
2021/11/12 14:36:14;;;;;;;122.72;64.85;;;256.40;1894.40;;;;;;4825594;29;20075;-61
2021/11/12 14:38:47;;;;;;;116.32;58.25;;;256.50;1894.40;;;;;;4825079;29;20477;-60
2021/11/12 14:46:59;;;;;;;120.28;58.97;;;256.40;1894.40;;;;;;4787423;29;20092;-61
2021/11/12 14:49:33;;;;;;;122.60;62.28;;;256.30;1894.40;;;;;;4772559;30;20184;-60
2021/11/12 14:54:39;;;;;;;156.70;74.90;;;256.30;1894.40;;;;;;4787513;30;20513;-60
2021/11/12 14:57:11;;;;;;;160.13;81.15;;;256.20;1894.40;;;;;;4787608;30;20049;-61
2021/11/12 14:59:41;;;;;;;173.93;84.20;;;256.20;1920.00;;;;;;4823019;29;20049;-61
2021/11/12 15:02:09;;;;;;;180.02;82.40;;;256.10;1920.00;;;;;;4824434;29;20034;-60
2021/11/12 15:04:35;;;;;;;180.52;82.63;;;256.10;1920.00;;;;;;4824078;29;20022;-60
2021/11/12 15:07:02;;;;;;;190.07;85.07;;;256.10;1920.00;;;;;;4808451;29;20050;-61
2021/11/12 15:09:33;;;;;;;202.27;93.53;;;256.00;1920.00;;;;;;4824721;29;20066;-61
2021/11/12 15:12:02;;;;;;;263.52;107.85;;;256.00;1920.00;;;;;;4825068;29;20034;-61
2021/11/12 15:14:30;;;;;;;311.52;123.20;;;231.30;1920.00;;;;;;4809905;29;20091;-61
2021/11/12 15:16:56;;;;;;;372.75;136.73;;;231.30;1945.60;;;;;;4825048;29;20046;-61
2021/11/12 15:19:24;;;;;;;420.02;146.85;;;231.30;1945.60;;;;;;4827125;29;20038;-60
2021/11/12 15:27:19;;;;;;;335.38;134.35;;;231.10;1945.60;;;;;;4900970;29;20352;-60
2021/11/12 15:32:33;;;;;;;246.73;122.53;;;231.10;1945.60;;;;;;4900241;29;20378;-61
2021/11/12 15:35:08;;;;;;;241.20;125.72;;;231.00;1945.60;;;;;;4901029;29;20451;-61
2021/11/12 15:45:28;;;;;;;205.30;107.30;;;230.90;1971.20;;;;;;4900674;29;20531;-60
2021/11/12 15:48:05;;;;;;;237.93;120.20;;;230.90;1971.20;;;;;;4900626;29;20028;-60
2021/11/12 15:50:43;;;;;;;326.77;167.30;;;230.80;1971.20;;;;;;4900501;29;20104;-61
2021/11/12 16:11:47;;;;;;;324.77;173.38;;;230.40;1971.20;;;;;;4842456;29;20038;-61
2021/11/12 16:14:24;;;;;;;330.88;171.07;;;230.40;1996.80;;;;;;4842428;29;20025;-60
2021/11/12 16:27:01;;;;;;;295.83;152.75;;;205.60;1945.60;;;;;;4842519;29;20091;-61
2021/11/12 16:32:01;;;;;;;320.90;164.77;;;205.50;1971.20;;;;;;4842093;29;20123;-60
2021/11/12 16:34:27;;;;;;;327.10;166.65;;;205.50;1996.80;;;;;;4842359;29;20400;-61
2021/11/12 16:37:00;;;;;;;323.10;166.82;;;205.50;1996.80;;;;;;4842283;29;20091;-61
2021/11/12 16:39:30;;;;;;;332.58;167.55;;;205.50;1971.20;;;;;;4841816;29;20046;-60
2021/11/12 16:42:26;;;;;;;364.15;177.82;;;205.40;1996.80;;;;;;4841304;29;20041;-61
2021/11/12 17:03:04;;;;;;;560.15;299.10;;;205.40;2022.40;;;;;;4859767;29;20498;-61
2021/11/12 17:13:31;;;;;;;374.13;184.68;;;205.40;2048.00;;;;;;4859868;29;20060;-61
2021/11/12 17:48:41;;;;;;;291.90;131.55;;;205.60;2048.00;;;;;;4822404;29;20095;-61
2021/11/12 18:01:50;;;;;;;175.57;85.13;;;205.70;2048.00;;;;;;4822615;29;20035;-61
2021/11/12 18:07:13;;;;;;;151.57;74.70;;;205.70;2048.00;;;;;;4822957;29;20118;-60
2021/11/12 21:46:57;;;;;;;321.45;143.70;;;154.20;2073.60;;;;;;4895506;29;20092;-59
2021/11/12 21:49:23;;;;;;;298.63;131.40;;;154.40;2048.00;;;;;;4897433;29;20046;-59
2021/11/12 21:51:48;;;;;;;255.45;117.43;;;154.50;1945.60;;;;;;4897531;29;20038;-60
2021/11/12 21:54:15;;;;;;;249.27;116.60;;;179.20;1894.40;;;;;;4897606;29;20025;-60
2021/11/12 21:56:40;;;;;;;246.27;112.22;;;154.50;1843.20;;;;;;4897366;29;20039;-61
2021/11/12 21:59:07;;;;;;;238.75;109.47;;;154.20;1894.40;;;;;;4897338;29;20029;-59
2021/11/12 22:01:34;;;;;;;211.98;100.75;;;154.10;1920.00;;;;;;4897831;29;20035;-59
2021/11/12 22:04:00;;;;;;;194.68;96.60;;;154.00;1894.40;;;;;;4897601;29;20021;-60
2021/11/12 22:06:26;;;;;;;204.43;97.82;;;153.80;1920.00;;;;;;4896396;29;20091;-57
2021/11/12 22:08:52;;;;;;;210.82;99.22;;;153.70;1945.60;;;;;;4898110;29;20182;-63
2021/11/12 22:11:18;;;;;;;234.98;109.88;;;153.60;1971.20;;;;;;4898187;29;20025;-57
2021/11/12 22:13:44;;;;;;;242.55;114.95;;;153.60;1971.20;;;;;;4898243;29;20033;-57
2021/11/12 22:16:12;;;;;;;266.08;125.43;;;128.90;1971.20;;;;;;4898445;29;20052;-59
2021/11/12 22:18:41;;;;;;;287.60;138.73;;;153.60;2022.40;;;;;;4898186;29;20032;-59
2021/11/12 22:21:07;;;;;;;278.50;138.80;;;153.80;2124.80;;;;;;4898332;29;20037;-59
2021/11/12 22:23:33;;;;;;;269.98;133.45;;;154.00;2176.00;;;;;;4898267;29;20048;-59
2021/11/12 22:26:00;;;;;;;256.33;128.43;;;154.20;2099.20;;;;;;4881271;29;20124;-59